sensor_id;sensor_type;location;lat;lon;timestamp;P1;durP1;ratioP1;P2;durP2;ratioP2
15230;SDS011;32569;51.762;8.564;2024-03-08T00:00:03;5.23;;;4.93;;
15230;SDS011;32569;51.762;8.564;2024-03-08T00:02:34;5.20;;;4.90;;
15230;SDS011;32569;51.762;8.564;2024-03-08T00:05:01;5.37;;;5.07;;
15230;SDS011;32569;51.762;8.564;2024-03-08T00:07:28;5.87;;;5.57;;
15230;SDS011;32569;51.762;8.564;2024-03-08T00:10:01;5.43;;;5.13;;
15230;SDS011;32569;51.762;8.564;2024-03-08T00:12:29;5.73;;;5.33;;
15230;SDS011;32569;51.762;8.564;2024-03-08T00:14:56;6.20;;;5.80;;
15230;SDS011;32569;51.762;8.564;2024-03-08T00:17:23;5.50;;;5.20;;
15230;SDS011;32569;51.762;8.564;2024-03-08T00:19:50;5.40;;;5.10;;
15230;SDS011;32569;51.762;8.564;2024-03-08T00:22:17;6.03;;;5.73;;
15230;SDS011;32569;51.762;8.564;2024-03-08T00:24:44;5.33;;;5.03;;
15230;SDS011;32569;51.762;8.564;2024-03-08T00:27:11;6.00;;;5.70;;
15230;SDS011;32569;51.762;8.564;2024-03-08T00:29:39;5.63;;;5.33;;
15230;SDS011;32569;51.762;8.564;2024-03-08T00:32:08;6.07;;;5.73;;
15230;SDS011;32569;51.762;8.564;2024-03-08T00:34:36;5.73;;;5.43;;
15230;SDS011;32569;51.762;8.564;2024-03-08T00:37:02;5.73;;;5.43;;
15230;SDS011;32569;51.762;8.564;2024-03-08T00:39:29;5.90;;;5.60;;
15230;SDS011;32569;51.762;8.564;2024-03-08T00:41:56;5.43;;;5.13;;
15230;SDS011;32569;51.762;8.564;2024-03-08T00:44:23;6.07;;;5.77;;
15230;SDS011;32569;51.762;8.564;2024-03-08T00:46:50;5.73;;;5.43;;
15230;SDS011;32569;51.762;8.564;2024-03-08T00:49:17;5.80;;;5.47;;
15230;SDS011;32569;51.762;8.564;2024-03-08T00:51:44;6.40;;;5.87;;
15230;SDS011;32569;51.762;8.564;2024-03-08T00:54:11;5.87;;;5.53;;
15230;SDS011;32569;51.762;8.564;2024-03-08T00:56:38;5.80;;;5.50;;
15230;SDS011;32569;51.762;8.564;2024-03-08T00:59:05;5.93;;;5.63;;
15230;SDS011;32569;51.762;8.564;2024-03-08T01:01:33;5.40;;;5.10;;
15230;SDS011;32569;51.762;8.564;2024-03-08T01:04:01;5.90;;;5.60;;
15230;SDS011;32569;51.762;8.564;2024-03-08T01:06:27;6.03;;;5.73;;
15230;SDS011;32569;51.762;8.564;2024-03-08T01:08:54;5.60;;;5.30;;
15230;SDS011;32569;51.762;8.564;2024-03-08T01:11:21;5.87;;;5.47;;
15230;SDS011;32569;51.762;8.564;2024-03-08T01:13:47;6.00;;;5.70;;
15230;SDS011;32569;51.762;8.564;2024-03-08T01:16:14;6.07;;;5.57;;
15230;SDS011;32569;51.762;8.564;2024-03-08T01:18:41;6.43;;;6.03;;
15230;SDS011;32569;51.762;8.564;2024-03-08T01:21:09;5.50;;;5.20;;
15230;SDS011;32569;51.762;8.564;2024-03-08T01:23:36;6.30;;;5.90;;
15230;SDS011;32569;51.762;8.564;2024-03-08T01:26:03;5.67;;;5.37;;
15230;SDS011;32569;51.762;8.564;2024-03-08T01:28:30;6.00;;;5.70;;
15230;SDS011;32569;51.762;8.564;2024-03-08T01:30:58;5.90;;;5.60;;
15230;SDS011;32569;51.762;8.564;2024-03-08T01:33:26;6.00;;;5.60;;
15230;SDS011;32569;51.762;8.564;2024-03-08T01:35:53;6.40;;;6.00;;
15230;SDS011;32569;51.762;8.564;2024-03-08T01:38:21;6.57;;;6.17;;
15230;SDS011;32569;51.762;8.564;2024-03-08T01:40:48;6.13;;;5.73;;
15230;SDS011;32569;51.762;8.564;2024-03-08T01:43:16;6.00;;;5.70;;
15230;SDS011;32569;51.762;8.564;2024-03-08T01:45:44;6.30;;;5.90;;
15230;SDS011;32569;51.762;8.564;2024-03-08T01:48:11;6.80;;;6.40;;
15230;SDS011;32569;51.762;8.564;2024-03-08T01:50:38;6.70;;;6.30;;
15230;SDS011;32569;51.762;8.564;2024-03-08T01:53:05;6.03;;;5.70;;
15230;SDS011;32569;51.762;8.564;2024-03-08T01:55:33;5.63;;;5.33;;
15230;SDS011;32569;51.762;8.564;2024-03-08T01:58:01;5.90;;;5.60;;
15230;SDS011;32569;51.762;8.564;2024-03-08T02:00:28;6.40;;;6.00;;
15230;SDS011;32569;51.762;8.564;2024-03-08T02:02:55;5.87;;;5.57;;
15230;SDS011;32569;51.762;8.564;2024-03-08T02:05:23;6.00;;;5.70;;
15230;SDS011;32569;51.762;8.564;2024-03-08T02:07:50;6.40;;;6.10;;
15230;SDS011;32569;51.762;8.564;2024-03-08T02:10:17;6.57;;;6.17;;
15230;SDS011;32569;51.762;8.564;2024-03-08T02:12:45;6.23;;;5.83;;
15230;SDS011;32569;51.762;8.564;2024-03-08T02:15:13;5.83;;;5.53;;
15230;SDS011;32569;51.762;8.564;2024-03-08T02:17:40;6.80;;;6.40;;
15230;SDS011;32569;51.762;8.564;2024-03-08T02:20:06;6.33;;;5.93;;
15230;SDS011;32569;51.762;8.564;2024-03-08T02:22:35;5.73;;;5.43;;
15230;SDS011;32569;51.762;8.564;2024-03-08T02:25:03;6.73;;;6.33;;
15230;SDS011;32569;51.762;8.564;2024-03-08T02:27:30;6.43;;;6.03;;
15230;SDS011;32569;51.762;8.564;2024-03-08T02:29:57;6.70;;;6.30;;
15230;SDS011;32569;51.762;8.564;2024-03-08T02:32:24;6.60;;;6.20;;
15230;SDS011;32569;51.762;8.564;2024-03-08T02:34:55;6.57;;;6.17;;
15230;SDS011;32569;51.762;8.564;2024-03-08T02:37:24;6.30;;;5.93;;
15230;SDS011;32569;51.762;8.564;2024-03-08T02:39:52;6.40;;;6.00;;
15230;SDS011;32569;51.762;8.564;2024-03-08T02:42:20;6.67;;;6.27;;
15230;SDS011;32569;51.762;8.564;2024-03-08T02:44:47;7.17;;;6.67;;
15230;SDS011;32569;51.762;8.564;2024-03-08T02:47:14;6.00;;;5.70;;
15230;SDS011;32569;51.762;8.564;2024-03-08T02:49:41;6.50;;;6.10;;
15230;SDS011;32569;51.762;8.564;2024-03-08T02:52:07;6.20;;;5.80;;
15230;SDS011;32569;51.762;8.564;2024-03-08T02:54:34;6.27;;;5.97;;
15230;SDS011;32569;51.762;8.564;2024-03-08T02:57:03;6.87;;;6.47;;
15230;SDS011;32569;51.762;8.564;2024-03-08T02:59:32;6.83;;;6.43;;
15230;SDS011;32569;51.762;8.564;2024-03-08T03:01:58;6.47;;;6.07;;
15230;SDS011;32569;51.762;8.564;2024-03-08T03:04:25;6.70;;;6.30;;
15230;SDS011;32569;51.762;8.564;2024-03-08T03:06:52;5.60;;;5.30;;
15230;SDS011;32569;51.762;8.564;2024-03-08T03:09:19;6.30;;;5.97;;
15230;SDS011;32569;51.762;8.564;2024-03-08T03:11:48;6.27;;;5.87;;
15230;SDS011;32569;51.762;8.564;2024-03-08T03:14:16;5.90;;;5.60;;
15230;SDS011;32569;51.762;8.564;2024-03-08T03:16:44;6.13;;;5.73;;
15230;SDS011;32569;51.762;8.564;2024-03-08T03:19:10;6.63;;;6.23;;
15230;SDS011;32569;51.762;8.564;2024-03-08T03:21:39;6.57;;;6.17;;
15230;SDS011;32569;51.762;8.564;2024-03-08T03:24:08;7.03;;;6.53;;
15230;SDS011;32569;51.762;8.564;2024-03-08T03:26:35;6.73;;;6.33;;
15230;SDS011;32569;51.762;8.564;2024-03-08T03:29:03;6.40;;;6.00;;
15230;SDS011;32569;51.762;8.564;2024-03-08T03:31:32;6.80;;;6.40;;
15230;SDS011;32569;51.762;8.564;2024-03-08T03:33:59;6.23;;;5.87;;
15230;SDS011;32569;51.762;8.564;2024-03-08T03:36:27;6.37;;;6.07;;
15230;SDS011;32569;51.762;8.564;2024-03-08T03:38:54;6.47;;;6.07;;
15230;SDS011;32569;51.762;8.564;2024-03-08T03:41:30;6.63;;;6.23;;
15230;SDS011;32569;51.762;8.564;2024-03-08T03:43:56;6.70;;;6.30;;
15230;SDS011;32569;51.762;8.564;2024-03-08T03:46:24;6.80;;;6.40;;
15230;SDS011;32569;51.762;8.564;2024-03-08T03:48:53;6.87;;;6.57;;
15230;SDS011;32569;51.762;8.564;2024-03-08T03:51:20;6.90;;;6.50;;
15230;SDS011;32569;51.762;8.564;2024-03-08T03:53:47;6.37;;;6.00;;
15230;SDS011;32569;51.762;8.564;2024-03-08T03:56:13;6.90;;;6.50;;
15230;SDS011;32569;51.762;8.564;2024-03-08T03:58:40;7.03;;;6.63;;
15230;SDS011;32569;51.762;8.564;2024-03-08T04:01:07;7.00;;;6.60;;
15230;SDS011;32569;51.762;8.564;2024-03-08T04:03:34;6.63;;;6.23;;
15230;SDS011;32569;51.762;8.564;2024-03-08T04:06:03;6.90;;;6.50;;
15230;SDS011;32569;51.762;8.564;2024-03-08T04:08:30;6.50;;;6.10;;
15230;SDS011;32569;51.762;8.564;2024-03-08T04:10:59;6.70;;;6.30;;
15230;SDS011;32569;51.762;8.564;2024-03-08T04:13:26;6.90;;;6.50;;
15230;SDS011;32569;51.762;8.564;2024-03-08T04:15:52;6.67;;;6.27;;
15230;SDS011;32569;51.762;8.564;2024-03-08T04:18:19;7.30;;;6.80;;
15230;SDS011;32569;51.762;8.564;2024-03-08T04:20:46;7.03;;;6.63;;
15230;SDS011;32569;51.762;8.564;2024-03-08T04:23:14;7.40;;;6.90;;
15230;SDS011;32569;51.762;8.564;2024-03-08T04:25:42;7.10;;;6.60;;
15230;SDS011;32569;51.762;8.564;2024-03-08T04:28:09;6.73;;;6.10;;
15230;SDS011;32569;51.762;8.564;2024-03-08T04:30:36;7.30;;;6.90;;
15230;SDS011;32569;51.762;8.564;2024-03-08T04:33:04;6.47;;;6.13;;
15230;SDS011;32569;51.762;8.564;2024-03-08T04:35:31;7.13;;;6.73;;
15230;SDS011;32569;51.762;8.564;2024-03-08T04:37:57;7.40;;;7.00;;
15230;SDS011;32569;51.762;8.564;2024-03-08T04:40:25;7.27;;;6.87;;
15230;SDS011;32569;51.762;8.564;2024-03-08T04:42:52;7.37;;;6.90;;
15230;SDS011;32569;51.762;8.564;2024-03-08T04:45:19;6.93;;;6.53;;
15230;SDS011;32569;51.762;8.564;2024-03-08T04:47:46;6.37;;;5.97;;
15230;SDS011;32569;51.762;8.564;2024-03-08T04:50:13;7.60;;;7.00;;
15230;SDS011;32569;51.762;8.564;2024-03-08T04:52:40;7.17;;;6.73;;
15230;SDS011;32569;51.762;8.564;2024-03-08T04:55:06;7.37;;;6.87;;
15230;SDS011;32569;51.762;8.564;2024-03-08T04:57:35;7.20;;;6.80;;
15230;SDS011;32569;51.762;8.564;2024-03-08T05:00:02;6.47;;;6.07;;
15230;SDS011;32569;51.762;8.564;2024-03-08T05:02:35;6.90;;;6.50;;
15230;SDS011;32569;51.762;8.564;2024-03-08T05:05:03;6.40;;;6.00;;
15230;SDS011;32569;51.762;8.564;2024-03-08T05:07:32;6.63;;;6.23;;
15230;SDS011;32569;51.762;8.564;2024-03-08T05:09:58;7.17;;;6.67;;
15230;SDS011;32569;51.762;8.564;2024-03-08T05:12:25;6.43;;;6.13;;
15230;SDS011;32569;51.762;8.564;2024-03-08T05:14:53;6.80;;;6.30;;
15230;SDS011;32569;51.762;8.564;2024-03-08T05:17:20;7.23;;;6.83;;
15230;SDS011;32569;51.762;8.564;2024-03-08T05:19:49;6.77;;;6.37;;
15230;SDS011;32569;51.762;8.564;2024-03-08T05:22:15;6.60;;;6.30;;
15230;SDS011;32569;51.762;8.564;2024-03-08T05:24:42;6.90;;;6.50;;
15230;SDS011;32569;51.762;8.564;2024-03-08T05:27:09;6.43;;;6.03;;
15230;SDS011;32569;51.762;8.564;2024-03-08T05:29:36;6.77;;;6.37;;
15230;SDS011;32569;51.762;8.564;2024-03-08T05:32:03;7.10;;;6.60;;
15230;SDS011;32569;51.762;8.564;2024-03-08T05:34:29;6.63;;;6.23;;
15230;SDS011;32569;51.762;8.564;2024-03-08T05:36:56;6.73;;;6.33;;
15230;SDS011;32569;51.762;8.564;2024-03-08T05:39:23;6.53;;;6.13;;
15230;SDS011;32569;51.762;8.564;2024-03-08T05:41:50;7.00;;;6.50;;
15230;SDS011;32569;51.762;8.564;2024-03-08T05:44:17;7.00;;;6.60;;
15230;SDS011;32569;51.762;8.564;2024-03-08T05:46:44;6.97;;;6.57;;
15230;SDS011;32569;51.762;8.564;2024-03-08T05:49:12;6.73;;;6.33;;
15230;SDS011;32569;51.762;8.564;2024-03-08T05:51:39;6.47;;;6.07;;
15230;SDS011;32569;51.762;8.564;2024-03-08T05:54:07;7.47;;;6.97;;
15230;SDS011;32569;51.762;8.564;2024-03-08T05:56:35;7.73;;;7.23;;
15230;SDS011;32569;51.762;8.564;2024-03-08T05:59:02;7.53;;;7.03;;
15230;SDS011;32569;51.762;8.564;2024-03-08T06:01:28;6.73;;;6.33;;
15230;SDS011;32569;51.762;8.564;2024-03-08T06:03:56;6.77;;;6.37;;
15230;SDS011;32569;51.762;8.564;2024-03-08T06:06:25;7.37;;;6.97;;
15230;SDS011;32569;51.762;8.564;2024-03-08T06:08:52;6.63;;;6.23;;
15230;SDS011;32569;51.762;8.564;2024-03-08T06:11:21;7.07;;;6.67;;
15230;SDS011;32569;51.762;8.564;2024-03-08T06:13:48;8.03;;;7.43;;
15230;SDS011;32569;51.762;8.564;2024-03-08T06:16:15;7.17;;;6.77;;
15230;SDS011;32569;51.762;8.564;2024-03-08T06:18:42;7.17;;;6.77;;
15230;SDS011;32569;51.762;8.564;2024-03-08T06:21:08;6.80;;;6.40;;
15230;SDS011;32569;51.762;8.564;2024-03-08T06:23:37;8.03;;;7.50;;
15230;SDS011;32569;51.762;8.564;2024-03-08T06:26:04;7.37;;;6.93;;
15230;SDS011;32569;51.762;8.564;2024-03-08T06:28:31;7.43;;;6.97;;
15230;SDS011;32569;51.762;8.564;2024-03-08T06:30:59;7.37;;;6.93;;
15230;SDS011;32569;51.762;8.564;2024-03-08T06:33:26;7.17;;;6.77;;
15230;SDS011;32569;51.762;8.564;2024-03-08T06:35:53;7.60;;;7.10;;
15230;SDS011;32569;51.762;8.564;2024-03-08T06:38:22;7.20;;;6.80;;
15230;SDS011;32569;51.762;8.564;2024-03-08T06:40:50;7.33;;;6.93;;
15230;SDS011;32569;51.762;8.564;2024-03-08T06:43:17;6.87;;;6.47;;
15230;SDS011;32569;51.762;8.564;2024-03-08T06:45:44;7.60;;;7.20;;
15230;SDS011;32569;51.762;8.564;2024-03-08T06:48:13;6.83;;;6.43;;
15230;SDS011;32569;51.762;8.564;2024-03-08T06:50:40;6.90;;;6.50;;
15230;SDS011;32569;51.762;8.564;2024-03-08T06:53:07;7.13;;;6.73;;
15230;SDS011;32569;51.762;8.564;2024-03-08T06:55:33;7.33;;;6.93;;
15230;SDS011;32569;51.762;8.564;2024-03-08T06:58:01;7.60;;;7.20;;
15230;SDS011;32569;51.762;8.564;2024-03-08T07:00:28;7.73;;;7.23;;
15230;SDS011;32569;51.762;8.564;2024-03-08T07:02:55;7.40;;;6.93;;
15230;SDS011;32569;51.762;8.564;2024-03-08T07:05:25;6.97;;;6.57;;
15230;SDS011;32569;51.762;8.564;2024-03-08T07:07:52;7.53;;;7.03;;
15230;SDS011;32569;51.762;8.564;2024-03-08T07:10:19;7.07;;;6.67;;
15230;SDS011;32569;51.762;8.564;2024-03-08T07:12:48;7.63;;;7.17;;
15230;SDS011;32569;51.762;8.564;2024-03-08T07:15:17;7.47;;;6.97;;
15230;SDS011;32569;51.762;8.564;2024-03-08T07:17:44;7.10;;;6.67;;
15230;SDS011;32569;51.762;8.564;2024-03-08T07:20:12;7.03;;;6.63;;
15230;SDS011;32569;51.762;8.564;2024-03-08T07:22:40;6.87;;;6.47;;
15230;SDS011;32569;51.762;8.564;2024-03-08T07:25:07;7.27;;;6.87;;
15230;SDS011;32569;51.762;8.564;2024-03-08T07:27:46;7.37;;;6.90;;
15230;SDS011;32569;51.762;8.564;2024-03-08T07:30:13;7.23;;;6.83;;
15230;SDS011;32569;51.762;8.564;2024-03-08T07:33:02;7.47;;;7.07;;
15230;SDS011;32569;51.762;8.564;2024-03-08T07:35:29;7.37;;;6.87;;
15230;SDS011;32569;51.762;8.564;2024-03-08T07:37:57;8.33;;;6.87;;
15230;SDS011;32569;51.762;8.564;2024-03-08T07:40:25;7.10;;;6.70;;
15230;SDS011;32569;51.762;8.564;2024-03-08T07:42:51;7.00;;;6.60;;
15230;SDS011;32569;51.762;8.564;2024-03-08T07:45:18;7.23;;;6.83;;
15230;SDS011;32569;51.762;8.564;2024-03-08T07:47:46;7.20;;;6.73;;
15230;SDS011;32569;51.762;8.564;2024-03-08T07:50:14;7.00;;;6.53;;
15230;SDS011;32569;51.762;8.564;2024-03-08T07:52:41;6.77;;;6.33;;
15230;SDS011;32569;51.762;8.564;2024-03-08T07:55:08;8.10;;;7.60;;
15230;SDS011;32569;51.762;8.564;2024-03-08T07:57:35;7.47;;;7.07;;
15230;SDS011;32569;51.762;8.564;2024-03-08T08:00:04;7.47;;;7.07;;
15230;SDS011;32569;51.762;8.564;2024-03-08T08:02:33;7.30;;;6.90;;
15230;SDS011;32569;51.762;8.564;2024-03-08T08:05:00;6.93;;;6.53;;
15230;SDS011;32569;51.762;8.564;2024-03-08T08:07:28;7.07;;;6.60;;
15230;SDS011;32569;51.762;8.564;2024-03-08T08:09:55;7.10;;;6.70;;
15230;SDS011;32569;51.762;8.564;2024-03-08T08:12:22;6.90;;;6.50;;
15230;SDS011;32569;51.762;8.564;2024-03-08T08:14:48;7.07;;;6.67;;
15230;SDS011;32569;51.762;8.564;2024-03-08T08:17:15;7.10;;;6.70;;
15230;SDS011;32569;51.762;8.564;2024-03-08T08:19:42;7.63;;;7.13;;
15230;SDS011;32569;51.762;8.564;2024-03-08T08:22:08;7.47;;;6.93;;
15230;SDS011;32569;51.762;8.564;2024-03-08T08:24:37;7.17;;;6.77;;
15230;SDS011;32569;51.762;8.564;2024-03-08T08:27:05;6.93;;;6.53;;
15230;SDS011;32569;51.762;8.564;2024-03-08T08:29:31;7.17;;;6.77;;
15230;SDS011;32569;51.762;8.564;2024-03-08T08:31:58;7.20;;;6.77;;
15230;SDS011;32569;51.762;8.564;2024-03-08T08:34:25;7.30;;;6.90;;
15230;SDS011;32569;51.762;8.564;2024-03-08T08:36:52;7.00;;;6.57;;
15230;SDS011;32569;51.762;8.564;2024-03-08T08:39:19;7.27;;;6.87;;
15230;SDS011;32569;51.762;8.564;2024-03-08T08:41:49;7.27;;;6.83;;
15230;SDS011;32569;51.762;8.564;2024-03-08T08:44:15;7.37;;;6.87;;
15230;SDS011;32569;51.762;8.564;2024-03-08T08:46:42;7.20;;;6.80;;
15230;SDS011;32569;51.762;8.564;2024-03-08T08:49:09;6.90;;;6.50;;
15230;SDS011;32569;51.762;8.564;2024-03-08T08:51:39;7.00;;;6.60;;
15230;SDS011;32569;51.762;8.564;2024-03-08T08:54:06;6.83;;;6.43;;
15230;SDS011;32569;51.762;8.564;2024-03-08T08:56:32;7.50;;;7.07;;
15230;SDS011;32569;51.762;8.564;2024-03-08T08:59:01;6.77;;;6.37;;
15230;SDS011;32569;51.762;8.564;2024-03-08T09:01:28;7.00;;;6.60;;
15230;SDS011;32569;51.762;8.564;2024-03-08T09:03:55;7.40;;;7.00;;
15230;SDS011;32569;51.762;8.564;2024-03-08T09:06:22;6.93;;;6.53;;
15230;SDS011;32569;51.762;8.564;2024-03-08T09:08:50;7.40;;;7.00;;
15230;SDS011;32569;51.762;8.564;2024-03-08T09:11:16;6.57;;;6.17;;
15230;SDS011;32569;51.762;8.564;2024-03-08T09:13:44;6.60;;;6.20;;
15230;SDS011;32569;51.762;8.564;2024-03-08T09:16:12;6.77;;;6.37;;
15230;SDS011;32569;51.762;8.564;2024-03-08T09:18:39;6.20;;;5.90;;
15230;SDS011;32569;51.762;8.564;2024-03-08T09:21:06;7.27;;;6.77;;
15230;SDS011;32569;51.762;8.564;2024-03-08T09:23:34;6.63;;;6.23;;
15230;SDS011;32569;51.762;8.564;2024-03-08T09:26:02;6.67;;;6.27;;
15230;SDS011;32569;51.762;8.564;2024-03-08T09:28:29;6.73;;;6.33;;
15230;SDS011;32569;51.762;8.564;2024-03-08T09:30:55;6.80;;;6.40;;
15230;SDS011;32569;51.762;8.564;2024-03-08T09:33:25;6.40;;;6.00;;
15230;SDS011;32569;51.762;8.564;2024-03-08T09:35:53;7.37;;;6.87;;
15230;SDS011;32569;51.762;8.564;2024-03-08T09:38:22;6.33;;;5.90;;
15230;SDS011;32569;51.762;8.564;2024-03-08T09:40:49;6.97;;;6.57;;
15230;SDS011;32569;51.762;8.564;2024-03-08T09:43:16;6.13;;;5.83;;
15230;SDS011;32569;51.762;8.564;2024-03-08T09:45:43;6.60;;;6.20;;
15230;SDS011;32569;51.762;8.564;2024-03-08T09:48:14;6.80;;;6.40;;
15230;SDS011;32569;51.762;8.564;2024-03-08T09:50:45;6.70;;;6.30;;
15230;SDS011;32569;51.762;8.564;2024-03-08T09:53:13;6.57;;;6.17;;
15230;SDS011;32569;51.762;8.564;2024-03-08T09:55:40;7.43;;;6.93;;
15230;SDS011;32569;51.762;8.564;2024-03-08T09:58:09;6.73;;;6.33;;
15230;SDS011;32569;51.762;8.564;2024-03-08T10:01:03;5.90;;;5.60;;
15230;SDS011;32569;51.762;8.564;2024-03-08T10:03:31;6.70;;;6.30;;
15230;SDS011;32569;51.762;8.564;2024-03-08T10:05:59;6.43;;;6.10;;
15230;SDS011;32569;51.762;8.564;2024-03-08T10:08:26;6.53;;;6.13;;
15230;SDS011;32569;51.762;8.564;2024-03-08T10:10:54;6.10;;;5.70;;
15230;SDS011;32569;51.762;8.564;2024-03-08T10:13:23;6.23;;;5.93;;
15230;SDS011;32569;51.762;8.564;2024-03-08T10:15:51;6.57;;;6.17;;
15230;SDS011;32569;51.762;8.564;2024-03-08T10:18:18;6.27;;;5.93;;
15230;SDS011;32569;51.762;8.564;2024-03-08T10:20:46;5.83;;;5.53;;
15230;SDS011;32569;51.762;8.564;2024-03-08T10:23:30;6.27;;;5.97;;
15230;SDS011;32569;51.762;8.564;2024-03-08T10:25:58;6.13;;;5.73;;
15230;SDS011;32569;51.762;8.564;2024-03-08T10:28:35;6.57;;;6.17;;
15230;SDS011;32569;51.762;8.564;2024-03-08T10:31:02;6.33;;;5.93;;
15230;SDS011;32569;51.762;8.564;2024-03-08T10:33:30;6.43;;;6.03;;
15230;SDS011;32569;51.762;8.564;2024-03-08T10:35:58;6.17;;;5.87;;
15230;SDS011;32569;51.762;8.564;2024-03-08T10:38:25;6.30;;;5.90;;
15230;SDS011;32569;51.762;8.564;2024-03-08T10:40:55;5.30;;;5.00;;
15230;SDS011;32569;51.762;8.564;2024-03-08T10:43:22;6.50;;;6.10;;
15230;SDS011;32569;51.762;8.564;2024-03-08T10:45:55;5.43;;;5.13;;
15230;SDS011;32569;51.762;8.564;2024-03-08T10:48:33;5.67;;;5.37;;
15230;SDS011;32569;51.762;8.564;2024-03-08T10:51:07;6.07;;;5.70;;
15230;SDS011;32569;51.762;8.564;2024-03-08T10:53:36;6.00;;;5.70;;
15230;SDS011;32569;51.762;8.564;2024-03-08T10:56:07;5.40;;;5.10;;
15230;SDS011;32569;51.762;8.564;2024-03-08T10:58:35;5.50;;;5.20;;
15230;SDS011;32569;51.762;8.564;2024-03-08T11:01:03;5.40;;;5.10;;
15230;SDS011;32569;51.762;8.564;2024-03-08T11:03:43;5.60;;;5.30;;
15230;SDS011;32569;51.762;8.564;2024-03-08T11:06:13;5.70;;;5.40;;
15230;SDS011;32569;51.762;8.564;2024-03-08T11:08:42;5.13;;;4.83;;
15230;SDS011;32569;51.762;8.564;2024-03-08T11:11:24;5.17;;;4.87;;
15230;SDS011;32569;51.762;8.564;2024-03-08T11:13:55;5.50;;;5.20;;
15230;SDS011;32569;51.762;8.564;2024-03-08T11:19:26;5.13;;;4.83;;
15230;SDS011;32569;51.762;8.564;2024-03-08T11:22:02;5.37;;;5.07;;
15230;SDS011;32569;51.762;8.564;2024-03-08T11:24:36;5.00;;;4.70;;
15230;SDS011;32569;51.762;8.564;2024-03-08T11:27:06;5.77;;;5.43;;
15230;SDS011;32569;51.762;8.564;2024-03-08T11:29:35;5.60;;;5.30;;
15230;SDS011;32569;51.762;8.564;2024-03-08T11:32:05;5.77;;;5.47;;
15230;SDS011;32569;51.762;8.564;2024-03-08T11:34:33;5.87;;;5.57;;
15230;SDS011;32569;51.762;8.564;2024-03-08T11:37:00;5.43;;;5.13;;
15230;SDS011;32569;51.762;8.564;2024-03-08T11:39:26;5.00;;;4.70;;
15230;SDS011;32569;51.762;8.564;2024-03-08T11:41:54;5.53;;;5.23;;
15230;SDS011;32569;51.762;8.564;2024-03-08T11:44:25;5.27;;;4.97;;
15230;SDS011;32569;51.762;8.564;2024-03-08T11:46:53;5.40;;;5.10;;
15230;SDS011;32569;51.762;8.564;2024-03-08T11:49:19;5.67;;;5.37;;
15230;SDS011;32569;51.762;8.564;2024-03-08T11:51:46;5.43;;;5.13;;
15230;SDS011;32569;51.762;8.564;2024-03-08T11:54:17;5.33;;;5.03;;
15230;SDS011;32569;51.762;8.564;2024-03-08T11:56:44;5.17;;;4.87;;
15230;SDS011;32569;51.762;8.564;2024-03-08T11:59:12;5.93;;;5.57;;
15230;SDS011;32569;51.762;8.564;2024-03-08T12:01:41;5.97;;;5.57;;
15230;SDS011;32569;51.762;8.564;2024-03-08T12:04:11;5.40;;;5.10;;
15230;SDS011;32569;51.762;8.564;2024-03-08T12:06:39;5.87;;;5.57;;
15230;SDS011;32569;51.762;8.564;2024-03-08T12:09:08;5.40;;;5.10;;
15230;SDS011;32569;51.762;8.564;2024-03-08T12:11:35;6.13;;;5.73;;
15230;SDS011;32569;51.762;8.564;2024-03-08T12:14:02;5.80;;;5.50;;
15230;SDS011;32569;51.762;8.564;2024-03-08T12:16:29;5.40;;;5.10;;
15230;SDS011;32569;51.762;8.564;2024-03-08T12:18:57;5.20;;;4.90;;
15230;SDS011;32569;51.762;8.564;2024-03-08T12:21:25;5.77;;;5.47;;
15230;SDS011;32569;51.762;8.564;2024-03-08T12:24:01;5.93;;;5.63;;
15230;SDS011;32569;51.762;8.564;2024-03-08T12:26:30;5.50;;;5.20;;
15230;SDS011;32569;51.762;8.564;2024-03-08T12:31:43;5.50;;;5.20;;
15230;SDS011;32569;51.762;8.564;2024-03-08T12:34:11;6.23;;;5.93;;
15230;SDS011;32569;51.762;8.564;2024-03-08T12:36:43;5.60;;;5.30;;
15230;SDS011;32569;51.762;8.564;2024-03-08T12:39:12;6.07;;;5.77;;
15230;SDS011;32569;51.762;8.564;2024-03-08T12:41:41;5.43;;;5.13;;
15230;SDS011;32569;51.762;8.564;2024-03-08T12:44:08;5.87;;;5.57;;
15230;SDS011;32569;51.762;8.564;2024-03-08T12:46:36;6.47;;;6.07;;
15230;SDS011;32569;51.762;8.564;2024-03-08T12:49:05;5.93;;;5.60;;
15230;SDS011;32569;51.762;8.564;2024-03-08T12:51:34;6.20;;;5.70;;
15230;SDS011;32569;51.762;8.564;2024-03-08T12:54:01;5.43;;;5.13;;
15230;SDS011;32569;51.762;8.564;2024-03-08T12:56:29;5.70;;;5.40;;
15230;SDS011;32569;51.762;8.564;2024-03-08T12:58:57;5.90;;;5.60;;
15230;SDS011;32569;51.762;8.564;2024-03-08T13:01:25;5.77;;;5.37;;
15230;SDS011;32569;51.762;8.564;2024-03-08T13:03:51;5.90;;;5.60;;
15230;SDS011;32569;51.762;8.564;2024-03-08T13:06:21;6.50;;;6.10;;
15230;SDS011;32569;51.762;8.564;2024-03-08T13:08:54;5.77;;;5.47;;
15230;SDS011;32569;51.762;8.564;2024-03-08T13:11:21;5.93;;;5.63;;
15230;SDS011;32569;51.762;8.564;2024-03-08T13:13:48;6.53;;;6.03;;
15230;SDS011;32569;51.762;8.564;2024-03-08T13:16:15;5.90;;;5.60;;
15230;SDS011;32569;51.762;8.564;2024-03-08T13:18:43;5.80;;;5.40;;
15230;SDS011;32569;51.762;8.564;2024-03-08T13:21:11;5.80;;;5.40;;
15230;SDS011;32569;51.762;8.564;2024-03-08T13:23:39;5.80;;;5.50;;
15230;SDS011;32569;51.762;8.564;2024-03-08T13:26:14;5.73;;;5.43;;
15230;SDS011;32569;51.762;8.564;2024-03-08T13:28:42;5.80;;;5.50;;
15230;SDS011;32569;51.762;8.564;2024-03-08T13:31:09;6.00;;;5.60;;
15230;SDS011;32569;51.762;8.564;2024-03-08T13:33:36;5.40;;;5.10;;
15230;SDS011;32569;51.762;8.564;2024-03-08T13:36:05;8.87;;;6.00;;
15230;SDS011;32569;51.762;8.564;2024-03-08T13:38:39;5.30;;;5.00;;
15230;SDS011;32569;51.762;8.564;2024-03-08T13:41:07;5.77;;;5.37;;
15230;SDS011;32569;51.762;8.564;2024-03-08T13:43:35;5.97;;;5.57;;
15230;SDS011;32569;51.762;8.564;2024-03-08T13:46:04;6.10;;;5.80;;
15230;SDS011;32569;51.762;8.564;2024-03-08T13:48:32;5.30;;;5.00;;
15230;SDS011;32569;51.762;8.564;2024-03-08T13:50:57;6.10;;;5.70;;
15230;SDS011;32569;51.762;8.564;2024-03-08T13:53:25;5.67;;;5.37;;
15230;SDS011;32569;51.762;8.564;2024-03-08T13:55:52;5.70;;;5.40;;
15230;SDS011;32569;51.762;8.564;2024-03-08T13:58:18;5.27;;;4.97;;
15230;SDS011;32569;51.762;8.564;2024-03-08T14:00:46;5.60;;;5.30;;
15230;SDS011;32569;51.762;8.564;2024-03-08T14:03:14;5.67;;;5.37;;
15230;SDS011;32569;51.762;8.564;2024-03-08T14:05:40;5.30;;;5.00;;
15230;SDS011;32569;51.762;8.564;2024-03-08T14:08:07;5.30;;;5.00;;
15230;SDS011;32569;51.762;8.564;2024-03-08T14:10:34;5.45;;;5.15;;
15230;SDS011;32569;51.762;8.564;2024-03-08T14:13:02;5.37;;;5.07;;
15230;SDS011;32569;51.762;8.564;2024-03-08T14:15:29;5.30;;;5.00;;
15230;SDS011;32569;51.762;8.564;2024-03-08T14:17:58;4.90;;;4.60;;
15230;SDS011;32569;51.762;8.564;2024-03-08T14:20:24;4.83;;;4.60;;
15230;SDS011;32569;51.762;8.564;2024-03-08T14:22:51;5.30;;;4.90;;
15230;SDS011;32569;51.762;8.564;2024-03-08T14:25:19;5.77;;;5.47;;
15230;SDS011;32569;51.762;8.564;2024-03-08T14:27:48;5.20;;;4.90;;
15230;SDS011;32569;51.762;8.564;2024-03-08T14:30:18;5.40;;;5.10;;
15230;SDS011;32569;51.762;8.564;2024-03-08T14:32:58;5.27;;;4.97;;
15230;SDS011;32569;51.762;8.564;2024-03-08T14:35:25;5.23;;;4.93;;
15230;SDS011;32569;51.762;8.564;2024-03-08T14:37:52;4.80;;;4.50;;
15230;SDS011;32569;51.762;8.564;2024-03-08T14:40:19;4.83;;;4.63;;
15230;SDS011;32569;51.762;8.564;2024-03-08T14:42:47;5.17;;;4.87;;
15230;SDS011;32569;51.762;8.564;2024-03-08T14:45:14;5.20;;;4.90;;
15230;SDS011;32569;51.762;8.564;2024-03-08T14:47:41;5.00;;;4.70;;
15230;SDS011;32569;51.762;8.564;2024-03-08T14:50:09;5.33;;;5.03;;
15230;SDS011;32569;51.762;8.564;2024-03-08T14:52:37;5.20;;;4.90;;
15230;SDS011;32569;51.762;8.564;2024-03-08T14:55:08;4.97;;;4.67;;
15230;SDS011;32569;51.762;8.564;2024-03-08T14:57:38;5.40;;;5.10;;